Aérodrome :
LOGIN :

S'inscrire | Disclaimer

   EN    FR    IT 

 










Légende :    VFR   VFR Marginal   IFR   IFR Intensif   IFR Très Intensif
Visi : 
Plafond : 
>= 8 km
>= 3000ft
5 à 8 km
1000 à 3000 ft
1500m à 5 km
500 à 1000 ft
800 à 1500m
200 à 500 ft
< 800m
< 200 ft
Symboles :   Orages  Brouillard  Fortes neiges  Fortes précipitations  Vent > 20 kt
SIGMETs :   Divers  Orages  Givrage  Turbulence  Onde Orograph.  Cendres Volcan.







- Altitude de l'aérodrome : 1548 ft


LKNA - Náměšť Air Base

DERNIER METAR :
  • 231623Z 32017KT 9999 FEW023 15/12 Q1015 RETS RMK BLU

METARs EXPIRÉS :
  • 231600Z 31024KT 9000 -SHRA VCTS BKN040CB 19/10 Q1014 NOSIG
  • 231500Z 25007KT 210V270 9999 SCT049 21/10 Q1013 NOSIG
  • 231400Z 26011KT 9999 VCSH BKN049TCU 22/09 Q1013 NOSIG

TAF TAF LKNA
Valide du 23 à 12h jusqu'au 24 à 12h UTC


231100Z 2312/2412 30010KT CAVOK
TEMPO 2314/2320 5000 SHRA SCT030TCU BKN045
PROB30
TEMPO 2315/2318 30020G36KT 4000 TSRA SCT025CB BKN040
BECMG 2318/2320 33004KT
BECMG 2408/2410 30010KT
Pas de NOTAMs connus pour ce terrain.
4 SIGMETs publiés pour la FIR Praha (LKAA) :
 
Orages noyés dans la masse
LKAA SIGMET 8 VALID 231639/231840 LKPW
LKAA PRAHA FIR EMBD TS OBS NE OF LINE N5025 E01646 - N4849 E01726 TOP FL350 MOV E NC=
Annulation du SIGMET 4 
LKAA SIGMET 7 VALID 231511/231725 LKPW
LKAA PRAHA FIR CNL SIGMET 4 231325/231725=
Orages fréquents
LKAA SIGMET 6 VALID 231510/231740 LKPW
LKAA PRAHA FIR FRQ TS FCST WI N5052 E01554 - N5029 E01645 - N4845 E01727 - N4829 E01232 - N5052 E01554 - N5052 E01554 TOP FL370 MOV E NC=
SIGMET 4  ANNULÉ :
Orages en lignes de grains
LKAA SIGMET 4 VALID 231325/231725 LKPW
LKAA PRAHA FIR SQL TS OBS WI N5100 E01409 - N5043 E01651 - N5029 E01516 - N4908 E01303 - N4926 E01237 - N5100 E01409 TOP FL370 MOV E NC=



MET'MAP, la Météo Aéronautique d'un coup d'oeil ! - Copyright ORBIFLY Décembre 2007 - Disclaimer

ORBIFLY MET'MAP TEAM :

Programmation & Développement : Alexandra Zaïnal
Conception & Développement : Baudouin d'Aumeries
Co-Programmation & Développement : Marc-Olivier Méhu
Soutien technique & logistique : Manuel Goepfert

Contact : metmap@orbifly.com




SOURCES & CREDITS :

   NOAA